sensor_id;sensor_type;location;lat;lon;timestamp;temperature;humidity
10536;DHT22;5316;49.538;8.352;2023-06-14T00:02:16;20.70;1.00
10536;DHT22;5316;49.538;8.352;2023-06-14T00:04:43;20.70;1.00
10536;DHT22;5316;49.538;8.352;2023-06-14T00:07:11;20.60;1.00
10536;DHT22;5316;49.538;8.352;2023-06-14T00:09:39;20.60;1.00
10536;DHT22;5316;49.538;8.352;2023-06-14T00:12:06;20.60;1.00
10536;DHT22;5316;49.538;8.352;2023-06-14T00:14:34;20.50;1.00
10536;DHT22;5316;49.538;8.352;2023-06-14T00:17:00;20.50;1.00
10536;DHT22;5316;49.538;8.352;2023-06-14T00:19:28;20.40;1.00
10536;DHT22;5316;49.538;8.352;2023-06-14T00:21:56;20.40;1.00
10536;DHT22;5316;49.538;8.352;2023-06-14T00:24:24;20.30;1.00
10536;DHT22;5316;49.538;8.352;2023-06-14T00:26:51;20.20;1.00
10536;DHT22;5316;49.538;8.352;2023-06-14T00:29:17;20.10;1.00
10536;DHT22;5316;49.538;8.352;2023-06-14T00:31:44;20.00;1.00
10536;DHT22;5316;49.538;8.352;2023-06-14T00:34:11;20.00;1.00
10536;DHT22;5316;49.538;8.352;2023-06-14T00:36:37;20.00;1.00
10536;DHT22;5316;49.538;8.352;2023-06-14T00:39:04;20.00;1.00
10536;DHT22;5316;49.538;8.352;2023-06-14T00:41:32;19.90;1.00
10536;DHT22;5316;49.538;8.352;2023-06-14T00:43:59;19.90;1.00
10536;DHT22;5316;49.538;8.352;2023-06-14T00:46:25;19.70;1.00
10536;DHT22;5316;49.538;8.352;2023-06-14T00:48:52;19.70;1.00
10536;DHT22;5316;49.538;8.352;2023-06-14T00:51:20;19.60;2.60
10536;DHT22;5316;49.538;8.352;2023-06-14T00:53:46;19.60;2.70
10536;DHT22;5316;49.538;8.352;2023-06-14T00:56:13;19.50;6.40
10536;DHT22;5316;49.538;8.352;2023-06-14T00:58:42;19.50;18.00
10536;DHT22;5316;49.538;8.352;2023-06-14T01:01:10;19.40;29.50
10536;DHT22;5316;49.538;8.352;2023-06-14T01:03:37;19.30;34.90
10536;DHT22;5316;49.538;8.352;2023-06-14T01:06:13;19.20;55.00
10536;DHT22;5316;49.538;8.352;2023-06-14T01:09:07;19.10;75.00
10536;DHT22;5316;49.538;8.352;2023-06-14T01:11:43;19.00;87.90
10536;DHT22;5316;49.538;8.352;2023-06-14T01:14:14;19.00;92.00
10536;DHT22;5316;49.538;8.352;2023-06-14T01:16:43;18.80;99.90
10536;DHT22;5316;49.538;8.352;2023-06-14T01:19:12;18.70;99.90
10536;DHT22;5316;49.538;8.352;2023-06-14T01:21:40;18.60;99.90
10536;DHT22;5316;49.538;8.352;2023-06-14T01:24:09;18.60;99.90
10536;DHT22;5316;49.538;8.352;2023-06-14T01:26:36;18.60;99.90
10536;DHT22;5316;49.538;8.352;2023-06-14T01:29:04;18.50;99.90
10536;DHT22;5316;49.538;8.352;2023-06-14T01:31:33;18.40;99.90
10536;DHT22;5316;49.538;8.352;2023-06-14T01:34:06;18.30;99.90
10536;DHT22;5316;49.538;8.352;2023-06-14T01:36:35;18.30;99.90
10536;DHT22;5316;49.538;8.352;2023-06-14T01:39:04;18.30;99.90
10536;DHT22;5316;49.538;8.352;2023-06-14T01:41:34;18.30;99.90
10536;DHT22;5316;49.538;8.352;2023-06-14T01:44:02;18.20;99.90
10536;DHT22;5316;49.538;8.352;2023-06-14T01:46:28;18.10;99.90
10536;DHT22;5316;49.538;8.352;2023-06-14T01:48:55;18.10;99.90
10536;DHT22;5316;49.538;8.352;2023-06-14T01:51:22;18.00;99.90
10536;DHT22;5316;49.538;8.352;2023-06-14T01:53:48;18.00;99.90
10536;DHT22;5316;49.538;8.352;2023-06-14T01:56:15;18.00;99.90
10536;DHT22;5316;49.538;8.352;2023-06-14T01:58:43;18.00;99.90
10536;DHT22;5316;49.538;8.352;2023-06-14T02:01:10;17.90;99.90
10536;DHT22;5316;49.538;8.352;2023-06-14T02:03:38;17.90;99.90
10536;DHT22;5316;49.538;8.352;2023-06-14T02:06:04;17.80;99.90
10536;DHT22;5316;49.538;8.352;2023-06-14T02:08:31;17.70;99.90
10536;DHT22;5316;49.538;8.352;2023-06-14T02:10:58;17.70;99.90
10536;DHT22;5316;49.538;8.352;2023-06-14T02:13:24;17.50;99.90
10536;DHT22;5316;49.538;8.352;2023-06-14T02:15:52;17.40;99.90
10536;DHT22;5316;49.538;8.352;2023-06-14T02:18:19;17.30;99.90
10536;DHT22;5316;49.538;8.352;2023-06-14T02:20:46;17.30;99.90
10536;DHT22;5316;49.538;8.352;2023-06-14T02:23:13;17.30;99.90
10536;DHT22;5316;49.538;8.352;2023-06-14T02:25:40;17.20;99.90
10536;DHT22;5316;49.538;8.352;2023-06-14T02:28:08;17.20;99.90
10536;DHT22;5316;49.538;8.352;2023-06-14T02:30:35;17.30;99.90
10536;DHT22;5316;49.538;8.352;2023-06-14T02:33:03;17.30;99.90
10536;DHT22;5316;49.538;8.352;2023-06-14T02:35:30;17.30;99.90
10536;DHT22;5316;49.538;8.352;2023-06-14T02:37:57;17.20;99.90
10536;DHT22;5316;49.538;8.352;2023-06-14T02:40:24;17.10;99.90
10536;DHT22;5316;49.538;8.352;2023-06-14T02:42:50;17.10;99.90
10536;DHT22;5316;49.538;8.352;2023-06-14T02:45:17;17.10;99.90
10536;DHT22;5316;49.538;8.352;2023-06-14T02:47:45;17.10;99.90
10536;DHT22;5316;49.538;8.352;2023-06-14T02:50:13;17.00;99.90
10536;DHT22;5316;49.538;8.352;2023-06-14T02:52:41;17.00;99.90
10536;DHT22;5316;49.538;8.352;2023-06-14T02:55:10;16.90;99.90
10536;DHT22;5316;49.538;8.352;2023-06-14T02:57:37;16.90;99.90
10536;DHT22;5316;49.538;8.352;2023-06-14T03:00:04;16.90;99.90
10536;DHT22;5316;49.538;8.352;2023-06-14T03:02:35;16.90;99.90
10536;DHT22;5316;49.538;8.352;2023-06-14T03:05:01;16.80;99.90
10536;DHT22;5316;49.538;8.352;2023-06-14T03:07:30;16.80;99.90
10536;DHT22;5316;49.538;8.352;2023-06-14T03:09:56;16.70;99.90
10536;DHT22;5316;49.538;8.352;2023-06-14T03:12:23;16.80;99.90
10536;DHT22;5316;49.538;8.352;2023-06-14T03:14:50;16.80;99.90
10536;DHT22;5316;49.538;8.352;2023-06-14T03:17:17;16.80;99.90
10536;DHT22;5316;49.538;8.352;2023-06-14T03:19:45;16.80;99.90
10536;DHT22;5316;49.538;8.352;2023-06-14T03:22:11;16.80;99.90
10536;DHT22;5316;49.538;8.352;2023-06-14T03:24:39;16.80;99.90
10536;DHT22;5316;49.538;8.352;2023-06-14T03:27:06;16.80;99.90
10536;DHT22;5316;49.538;8.352;2023-06-14T03:29:35;16.80;99.90
10536;DHT22;5316;49.538;8.352;2023-06-14T03:32:03;16.80;99.90
10536;DHT22;5316;49.538;8.352;2023-06-14T03:34:30;16.80;99.90
10536;DHT22;5316;49.538;8.352;2023-06-14T03:36:56;16.90;99.90
10536;DHT22;5316;49.538;8.352;2023-06-14T03:39:23;16.90;99.90
10536;DHT22;5316;49.538;8.352;2023-06-14T03:41:51;16.90;99.90
10536;DHT22;5316;49.538;8.352;2023-06-14T03:44:18;16.90;99.90
10536;DHT22;5316;49.538;8.352;2023-06-14T03:46:45;16.90;99.90
10536;DHT22;5316;49.538;8.352;2023-06-14T03:49:12;16.90;99.90
10536;DHT22;5316;49.538;8.352;2023-06-14T03:51:39;16.90;99.90
10536;DHT22;5316;49.538;8.352;2023-06-14T03:54:06;17.00;99.90
10536;DHT22;5316;49.538;8.352;2023-06-14T03:56:33;17.10;99.90
10536;DHT22;5316;49.538;8.352;2023-06-14T03:59:02;17.10;99.90
10536;DHT22;5316;49.538;8.352;2023-06-14T04:01:29;17.20;99.90
10536;DHT22;5316;49.538;8.352;2023-06-14T04:03:57;17.20;99.90
10536;DHT22;5316;49.538;8.352;2023-06-14T04:06:24;17.20;99.90
10536;DHT22;5316;49.538;8.352;2023-06-14T04:08:58;17.20;99.90
10536;DHT22;5316;49.538;8.352;2023-06-14T04:11:27;17.20;99.90
10536;DHT22;5316;49.538;8.352;2023-06-14T04:13:54;17.20;99.90
10536;DHT22;5316;49.538;8.352;2023-06-14T04:16:23;17.30;99.90
10536;DHT22;5316;49.538;8.352;2023-06-14T04:18:50;17.20;99.90
10536;DHT22;5316;49.538;8.352;2023-06-14T04:21:18;17.20;99.90
10536;DHT22;5316;49.538;8.352;2023-06-14T04:23:45;17.20;99.90
10536;DHT22;5316;49.538;8.352;2023-06-14T04:26:12;17.20;99.90
10536;DHT22;5316;49.538;8.352;2023-06-14T04:28:40;17.20;99.90
10536;DHT22;5316;49.538;8.352;2023-06-14T04:31:07;17.30;99.90
10536;DHT22;5316;49.538;8.352;2023-06-14T04:33:36;17.40;99.90
10536;DHT22;5316;49.538;8.352;2023-06-14T04:36:11;17.50;99.90
10536;DHT22;5316;49.538;8.352;2023-06-14T04:38:38;17.60;99.90
10536;DHT22;5316;49.538;8.352;2023-06-14T04:43:41;17.90;99.90
10536;DHT22;5316;49.538;8.352;2023-06-14T04:46:08;17.90;99.90
10536;DHT22;5316;49.538;8.352;2023-06-14T04:48:40;18.00;99.90
10536;DHT22;5316;49.538;8.352;2023-06-14T04:51:08;18.10;99.90
10536;DHT22;5316;49.538;8.352;2023-06-14T04:53:35;18.10;99.90
10536;DHT22;5316;49.538;8.352;2023-06-14T04:56:03;18.20;99.90
10536;DHT22;5316;49.538;8.352;2023-06-14T04:58:30;18.20;99.90
10536;DHT22;5316;49.538;8.352;2023-06-14T05:00:57;18.30;99.90
10536;DHT22;5316;49.538;8.352;2023-06-14T05:03:25;18.40;99.90
10536;DHT22;5316;49.538;8.352;2023-06-14T05:05:54;18.40;99.90
10536;DHT22;5316;49.538;8.352;2023-06-14T05:08:21;18.40;99.90
10536;DHT22;5316;49.538;8.352;2023-06-14T05:10:50;18.50;99.90
10536;DHT22;5316;49.538;8.352;2023-06-14T05:13:17;18.60;99.90
10536;DHT22;5316;49.538;8.352;2023-06-14T05:15:44;18.60;99.90
10536;DHT22;5316;49.538;8.352;2023-06-14T05:18:12;18.60;99.90
10536;DHT22;5316;49.538;8.352;2023-06-14T05:20:41;18.60;99.90
10536;DHT22;5316;49.538;8.352;2023-06-14T05:23:09;18.70;99.90
10536;DHT22;5316;49.538;8.352;2023-06-14T05:25:41;18.70;99.90
10536;DHT22;5316;49.538;8.352;2023-06-14T05:28:08;18.70;99.90
10536;DHT22;5316;49.538;8.352;2023-06-14T05:30:37;18.80;99.90
10536;DHT22;5316;49.538;8.352;2023-06-14T05:33:04;18.80;99.90
10536;DHT22;5316;49.538;8.352;2023-06-14T05:35:34;18.90;99.90
10536;DHT22;5316;49.538;8.352;2023-06-14T05:38:11;18.90;99.90
10536;DHT22;5316;49.538;8.352;2023-06-14T05:40:39;19.00;99.90
10536;DHT22;5316;49.538;8.352;2023-06-14T05:43:07;19.10;99.90
10536;DHT22;5316;49.538;8.352;2023-06-14T05:45:35;19.20;99.90
10536;DHT22;5316;49.538;8.352;2023-06-14T05:48:02;19.30;99.90
10536;DHT22;5316;49.538;8.352;2023-06-14T05:51:19;19.30;99.90
10536;DHT22;5316;49.538;8.352;2023-06-14T05:53:52;19.30;99.90
10536;DHT22;5316;49.538;8.352;2023-06-14T05:56:38;19.40;99.90
10536;DHT22;5316;49.538;8.352;2023-06-14T05:59:06;19.40;99.90
10536;DHT22;5316;49.538;8.352;2023-06-14T06:01:34;19.40;99.90
10536;DHT22;5316;49.538;8.352;2023-06-14T06:04:04;19.50;99.90
10536;DHT22;5316;49.538;8.352;2023-06-14T06:06:32;19.50;99.90
10536;DHT22;5316;49.538;8.352;2023-06-14T06:09:03;19.50;96.30
10536;DHT22;5316;49.538;8.352;2023-06-14T06:11:32;19.50;99.90
10536;DHT22;5316;49.538;8.352;2023-06-14T06:14:04;19.50;98.80
10536;DHT22;5316;49.538;8.352;2023-06-14T06:16:33;19.50;99.90
10536;DHT22;5316;49.538;8.352;2023-06-14T06:19:05;19.60;99.90
10536;DHT22;5316;49.538;8.352;2023-06-14T06:21:34;19.60;99.90
10536;DHT22;5316;49.538;8.352;2023-06-14T06:24:04;19.60;96.40
10536;DHT22;5316;49.538;8.352;2023-06-14T06:26:32;19.70;99.90
10536;DHT22;5316;49.538;8.352;2023-06-14T06:28:59;19.70;96.80
10536;DHT22;5316;49.538;8.352;2023-06-14T06:31:28;19.70;99.90
10536;DHT22;5316;49.538;8.352;2023-06-14T06:33:59;19.80;99.90
10536;DHT22;5316;49.538;8.352;2023-06-14T06:36:26;19.80;99.90
10536;DHT22;5316;49.538;8.352;2023-06-14T06:38:55;19.90;93.60
10536;DHT22;5316;49.538;8.352;2023-06-14T06:41:28;19.90;99.90
10536;DHT22;5316;49.538;8.352;2023-06-14T06:43:56;20.10;99.90
10536;DHT22;5316;49.538;8.352;2023-06-14T06:46:26;20.10;96.20
10536;DHT22;5316;49.538;8.352;2023-06-14T06:48:54;20.20;74.40
10536;DHT22;5316;49.538;8.352;2023-06-14T06:51:21;20.20;81.50
10536;DHT22;5316;49.538;8.352;2023-06-14T06:53:52;20.20;69.20
10536;DHT22;5316;49.538;8.352;2023-06-14T06:56:20;20.30;66.10
10536;DHT22;5316;49.538;8.352;2023-06-14T06:58:50;20.40;60.50
10536;DHT22;5316;49.538;8.352;2023-06-14T07:01:17;20.40;52.70
10536;DHT22;5316;49.538;8.352;2023-06-14T07:03:46;20.50;30.00
10536;DHT22;5316;49.538;8.352;2023-06-14T07:06:13;20.60;30.00
10536;DHT22;5316;49.538;8.352;2023-06-14T07:08:43;20.60;29.90
10536;DHT22;5316;49.538;8.352;2023-06-14T07:11:10;20.60;30.00
10536;DHT22;5316;49.538;8.352;2023-06-14T07:13:38;20.70;25.20
10536;DHT22;5316;49.538;8.352;2023-06-14T07:16:07;20.80;27.30
10536;DHT22;5316;49.538;8.352;2023-06-14T07:18:34;20.90;19.20
10536;DHT22;5316;49.538;8.352;2023-06-14T07:21:04;20.90;3.60
10536;DHT22;5316;49.538;8.352;2023-06-14T07:23:31;21.00;2.40
10536;DHT22;5316;49.538;8.352;2023-06-14T07:25:58;21.20;1.00
10536;DHT22;5316;49.538;8.352;2023-06-14T07:28:28;21.20;1.00
10536;DHT22;5316;49.538;8.352;2023-06-14T07:30:55;21.20;1.00
10536;DHT22;5316;49.538;8.352;2023-06-14T07:33:24;21.20;1.00
10536;DHT22;5316;49.538;8.352;2023-06-14T08:32:31;22.20;1.00
10536;DHT22;5316;49.538;8.352;2023-06-14T08:35:01;22.30;1.00
10536;DHT22;5316;49.538;8.352;2023-06-14T08:37:28;22.30;1.00
10536;DHT22;5316;49.538;8.352;2023-06-14T08:39:55;22.30;1.00
10536;DHT22;5316;49.538;8.352;2023-06-14T08:42:24;22.40;1.00
10536;DHT22;5316;49.538;8.352;2023-06-14T08:44:51;22.40;1.00
10536;DHT22;5316;49.538;8.352;2023-06-14T08:47:19;22.40;1.00
10536;DHT22;5316;49.538;8.352;2023-06-14T08:49:48;22.40;1.00
10536;DHT22;5316;49.538;8.352;2023-06-14T08:52:19;22.50;1.00
10536;DHT22;5316;49.538;8.352;2023-06-14T08:54:47;22.50;1.00
10536;DHT22;5316;49.538;8.352;2023-06-14T08:57:17;22.60;1.00
10536;DHT22;5316;49.538;8.352;2023-06-14T08:59:47;22.60;1.00
10536;DHT22;5316;49.538;8.352;2023-06-14T09:02:18;22.60;1.00
10536;DHT22;5316;49.538;8.352;2023-06-14T09:04:49;22.70;1.00
10536;DHT22;5316;49.538;8.352;2023-06-14T09:07:17;22.70;1.00
10536;DHT22;5316;49.538;8.352;2023-06-14T09:09:44;22.80;1.00
10536;DHT22;5316;49.538;8.352;2023-06-14T09:12:12;22.80;1.00
10536;DHT22;5316;49.538;8.352;2023-06-14T09:14:39;22.80;1.00
10536;DHT22;5316;49.538;8.352;2023-06-14T09:17:08;22.80;1.00
10536;DHT22;5316;49.538;8.352;2023-06-14T09:19:55;22.90;1.00
10536;DHT22;5316;49.538;8.352;2023-06-14T09:22:22;22.90;1.00
10536;DHT22;5316;49.538;8.352;2023-06-14T09:24:50;23.00;1.00
10536;DHT22;5316;49.538;8.352;2023-06-14T09:27:21;23.10;1.00
10536;DHT22;5316;49.538;8.352;2023-06-14T09:29:49;23.10;1.00
10536;DHT22;5316;49.538;8.352;2023-06-14T09:32:19;23.10;1.00
10536;DHT22;5316;49.538;8.352;2023-06-14T09:34:50;23.10;1.00
10536;DHT22;5316;49.538;8.352;2023-06-14T09:37:28;23.20;1.00
10536;DHT22;5316;49.538;8.352;2023-06-14T09:40:04;23.20;1.00
10536;DHT22;5316;49.538;8.352;2023-06-14T09:42:37;23.30;1.00
10536;DHT22;5316;49.538;8.352;2023-06-14T09:45:10;23.30;1.00
10536;DHT22;5316;49.538;8.352;2023-06-14T09:47:45;23.30;1.00
10536;DHT22;5316;49.538;8.352;2023-06-14T12:57:48;27.00;1.00
10536;DHT22;5316;49.538;8.352;2023-06-14T13:03:39;27.10;1.00
10536;DHT22;5316;49.538;8.352;2023-06-14T13:06:24;27.10;1.00
10536;DHT22;5316;49.538;8.352;2023-06-14T13:09:23;27.10;1.00
10536;DHT22;5316;49.538;8.352;2023-06-14T13:26:50;28.30;1.00
10536;DHT22;5316;49.538;8.352;2023-06-14T13:29:07;28.50;1.00
10536;DHT22;5316;49.538;8.352;2023-06-14T13:36:15;28.80;1.00
10536;DHT22;5316;49.538;8.352;2023-06-14T13:39:25;29.10;1.00
10536;DHT22;5316;49.538;8.352;2023-06-14T15:07:52;34.30;99.90
10536;DHT22;5316;49.538;8.352;2023-06-14T15:10:32;34.50;99.90
10536;DHT22;5316;49.538;8.352;2023-06-14T15:21:33;33.60;99.90
10536;DHT22;5316;49.538;8.352;2023-06-14T15:24:02;33.70;99.90
10536;DHT22;5316;49.538;8.352;2023-06-14T15:26:29;33.30;1.00
10536;DHT22;5316;49.538;8.352;2023-06-14T15:28:56;32.80;1.00
10536;DHT22;5316;49.538;8.352;2023-06-14T15:31:23;32.30;1.00
10536;DHT22;5316;49.538;8.352;2023-06-14T15:33:53;31.90;1.00
10536;DHT22;5316;49.538;8.352;2023-06-14T15:36:20;31.60;1.00
10536;DHT22;5316;49.538;8.352;2023-06-14T15:38:47;31.40;1.00
10536;DHT22;5316;49.538;8.352;2023-06-14T15:41:21;31.10;1.00
10536;DHT22;5316;49.538;8.352;2023-06-14T15:43:48;31.10;1.00
10536;DHT22;5316;49.538;8.352;2023-06-14T15:46:15;31.70;1.00
10536;DHT22;5316;49.538;8.352;2023-06-14T15:48:42;32.50;1.00
10536;DHT22;5316;49.538;8.352;2023-06-14T15:51:09;33.50;1.00
10536;DHT22;5316;49.538;8.352;2023-06-14T15:53:36;34.40;99.90
10536;DHT22;5316;49.538;8.352;2023-06-14T15:56:03;35.20;99.90
10536;DHT22;5316;49.538;8.352;2023-06-14T15:58:31;35.80;99.90
10536;DHT22;5316;49.538;8.352;2023-06-14T16:00:58;36.30;99.90
10536;DHT22;5316;49.538;8.352;2023-06-14T16:03:25;36.30;99.90
10536;DHT22;5316;49.538;8.352;2023-06-14T16:05:52;36.60;99.90
10536;DHT22;5316;49.538;8.352;2023-06-14T16:08:19;36.20;99.90
10536;DHT22;5316;49.538;8.352;2023-06-14T16:10:47;36.20;99.90
10536;DHT22;5316;49.538;8.352;2023-06-14T16:13:14;36.40;99.90
10536;DHT22;5316;49.538;8.352;2023-06-14T16:15:44;36.50;99.90
10536;DHT22;5316;49.538;8.352;2023-06-14T16:18:11;36.60;99.90
10536;DHT22;5316;49.538;8.352;2023-06-14T16:20:38;36.80;99.90
10536;DHT22;5316;49.538;8.352;2023-06-14T16:23:05;37.00;99.90
10536;DHT22;5316;49.538;8.352;2023-06-14T16:25:33;36.70;99.90
10536;DHT22;5316;49.538;8.352;2023-06-14T16:28:01;36.20;99.90
10536;DHT22;5316;49.538;8.352;2023-06-14T16:30:28;35.60;99.90
10536;DHT22;5316;49.538;8.352;2023-06-14T16:32:57;34.60;99.90
10536;DHT22;5316;49.538;8.352;2023-06-14T16:35:29;33.70;1.00
10536;DHT22;5316;49.538;8.352;2023-06-14T16:37:57;33.10;1.00
10536;DHT22;5316;49.538;8.352;2023-06-14T16:40:25;33.10;1.00
10536;DHT22;5316;49.538;8.352;2023-06-14T16:42:52;33.80;1.00
10536;DHT22;5316;49.538;8.352;2023-06-14T16:45:19;34.00;99.90
10536;DHT22;5316;49.538;8.352;2023-06-14T16:47:45;34.40;99.90
10536;DHT22;5316;49.538;8.352;2023-06-14T16:50:16;34.90;99.90
10536;DHT22;5316;49.538;8.352;2023-06-14T16:52:44;35.20;99.90
10536;DHT22;5316;49.538;8.352;2023-06-14T16:55:12;35.80;99.90
10536;DHT22;5316;49.538;8.352;2023-06-14T16:57:39;36.40;99.90
10536;DHT22;5316;49.538;8.352;2023-06-14T17:00:07;36.50;99.90
10536;DHT22;5316;49.538;8.352;2023-06-14T17:02:49;36.70;99.90
10536;DHT22;5316;49.538;8.352;2023-06-14T17:05:43;36.30;99.90
10536;DHT22;5316;49.538;8.352;2023-06-14T17:08:32;36.30;99.90
10536;DHT22;5316;49.538;8.352;2023-06-14T17:11:14;36.60;99.90
10536;DHT22;5316;49.538;8.352;2023-06-14T17:14:01;36.70;99.90
10536;DHT22;5316;49.538;8.352;2023-06-14T17:16:35;36.20;99.90
10536;DHT22;5316;49.538;8.352;2023-06-14T17:19:08;35.50;99.90
10536;DHT22;5316;49.538;8.352;2023-06-14T17:21:42;35.10;99.90
10536;DHT22;5316;49.538;8.352;2023-06-14T17:24:15;34.60;99.90
10536;DHT22;5316;49.538;8.352;2023-06-14T17:26:51;34.60;99.90
10536;DHT22;5316;49.538;8.352;2023-06-14T17:29:26;34.10;99.90
10536;DHT22;5316;49.538;8.352;2023-06-14T17:32:02;33.50;1.00
10536;DHT22;5316;49.538;8.352;2023-06-14T17:34:35;32.80;1.00
10536;DHT22;5316;49.538;8.352;2023-06-14T17:37:07;32.20;1.00
10536;DHT22;5316;49.538;8.352;2023-06-14T17:39:37;31.60;1.00
10536;DHT22;5316;49.538;8.352;2023-06-14T17:42:07;31.10;1.00
10536;DHT22;5316;49.538;8.352;2023-06-14T17:44:34;30.80;1.00
10536;DHT22;5316;49.538;8.352;2023-06-14T17:47:01;30.30;1.00
10536;DHT22;5316;49.538;8.352;2023-06-14T17:49:27;29.90;1.00
10536;DHT22;5316;49.538;8.352;2023-06-14T17:51:54;29.70;1.00
10536;DHT22;5316;49.538;8.352;2023-06-14T17:54:22;29.50;1.00
10536;DHT22;5316;49.538;8.352;2023-06-14T17:56:49;29.30;1.00
10536;DHT22;5316;49.538;8.352;2023-06-14T17:59:16;29.30;1.00
10536;DHT22;5316;49.538;8.352;2023-06-14T18:01:43;29.50;1.00
10536;DHT22;5316;49.538;8.352;2023-06-14T18:04:11;29.50;1.00
10536;DHT22;5316;49.538;8.352;2023-06-14T18:06:41;29.50;1.00
10536;DHT22;5316;49.538;8.352;2023-06-14T18:09:09;29.60;1.00
10536;DHT22;5316;49.538;8.352;2023-06-14T18:11:38;29.60;1.00
10536;DHT22;5316;49.538;8.352;2023-06-14T18:14:11;29.80;1.00
10536;DHT22;5316;49.538;8.352;2023-06-14T18:16:38;30.10;1.00
10536;DHT22;5316;49.538;8.352;2023-06-14T18:19:07;30.30;1.00
10536;DHT22;5316;49.538;8.352;2023-06-14T18:21:34;30.50;1.00
10536;DHT22;5316;49.538;8.352;2023-06-14T18:24:03;30.40;1.00
10536;DHT22;5316;49.538;8.352;2023-06-14T18:26:30;30.40;1.00
10536;DHT22;5316;49.538;8.352;2023-06-14T18:28:58;30.20;1.00
10536;DHT22;5316;49.538;8.352;2023-06-14T18:31:26;30.20;1.00
10536;DHT22;5316;49.538;8.352;2023-06-14T18:34:04;30.20;1.00
10536;DHT22;5316;49.538;8.352;2023-06-14T18:36:32;30.10;1.00
10536;DHT22;5316;49.538;8.352;2023-06-14T18:39:00;30.00;1.00
10536;DHT22;5316;49.538;8.352;2023-06-14T18:41:27;30.00;1.00
10536;DHT22;5316;49.538;8.352;2023-06-14T18:43:54;29.90;1.00
10536;DHT22;5316;49.538;8.352;2023-06-14T18:46:23;29.90;1.00
10536;DHT22;5316;49.538;8.352;2023-06-14T18:48:52;29.70;1.00
10536;DHT22;5316;49.538;8.352;2023-06-14T18:51:19;29.50;1.00
10536;DHT22;5316;49.538;8.352;2023-06-14T18:53:46;29.30;1.00
10536;DHT22;5316;49.538;8.352;2023-06-14T18:56:19;29.10;1.00
10536;DHT22;5316;49.538;8.352;2023-06-14T18:58:47;28.70;1.00
10536;DHT22;5316;49.538;8.352;2023-06-14T19:01:14;28.30;1.00
10536;DHT22;5316;49.538;8.352;2023-06-14T19:03:49;27.90;1.00
10536;DHT22;5316;49.538;8.352;2023-06-14T19:06:23;27.50;1.00
10536;DHT22;5316;49.538;8.352;2023-06-14T19:08:54;27.30;1.00
10536;DHT22;5316;49.538;8.352;2023-06-14T19:11:35;27.00;1.00
10536;DHT22;5316;49.538;8.352;2023-06-14T19:14:01;26.70;1.00
10536;DHT22;5316;49.538;8.352;2023-06-14T19:16:37;26.40;1.00
10536;DHT22;5316;49.538;8.352;2023-06-14T19:19:45;26.20;1.00
10536;DHT22;5316;49.538;8.352;2023-06-14T19:22:41;25.90;1.00
10536;DHT22;5316;49.538;8.352;2023-06-14T19:25:12;25.80;1.00
10536;DHT22;5316;49.538;8.352;2023-06-14T19:27:39;25.60;1.00
10536;DHT22;5316;49.538;8.352;2023-06-14T19:30:09;25.50;1.00
10536;DHT22;5316;49.538;8.352;2023-06-14T19:32:37;25.30;1.00
10536;DHT22;5316;49.538;8.352;2023-06-14T19:35:09;25.10;1.00
10536;DHT22;5316;49.538;8.352;2023-06-14T19:37:36;25.00;1.00
10536;DHT22;5316;49.538;8.352;2023-06-14T19:40:04;25.00;1.00
10536;DHT22;5316;49.538;8.352;2023-06-14T19:42:52;24.80;1.00
10536;DHT22;5316;49.538;8.352;2023-06-14T19:45:19;24.70;1.00
10536;DHT22;5316;49.538;8.352;2023-06-14T19:47:47;24.50;1.00
10536;DHT22;5316;49.538;8.352;2023-06-14T19:50:16;24.50;1.00
10536;DHT22;5316;49.538;8.352;2023-06-14T19:52:43;24.40;1.00
10536;DHT22;5316;49.538;8.352;2023-06-14T19:55:10;24.30;1.00
10536;DHT22;5316;49.538;8.352;2023-06-14T19:57:37;24.20;1.00
10536;DHT22;5316;49.538;8.352;2023-06-14T20:00:05;24.10;1.00
10536;DHT22;5316;49.538;8.352;2023-06-14T20:02:33;23.90;1.00
10536;DHT22;5316;49.538;8.352;2023-06-14T20:05:05;23.90;1.00
10536;DHT22;5316;49.538;8.352;2023-06-14T20:07:33;23.80;1.00
10536;DHT22;5316;49.538;8.352;2023-06-14T20:10:07;23.70;1.00
10536;DHT22;5316;49.538;8.352;2023-06-14T20:12:38;23.60;1.00
10536;DHT22;5316;49.538;8.352;2023-06-14T20:15:07;23.60;1.00
10536;DHT22;5316;49.538;8.352;2023-06-14T20:17:34;23.50;1.00
10536;DHT22;5316;49.538;8.352;2023-06-14T20:20:01;23.40;1.00
10536;DHT22;5316;49.538;8.352;2023-06-14T20:22:28;23.40;1.00
10536;DHT22;5316;49.538;8.352;2023-06-14T20:24:56;23.30;1.00
10536;DHT22;5316;49.538;8.352;2023-06-14T20:27:23;23.20;1.00
10536;DHT22;5316;49.538;8.352;2023-06-14T20:29:50;23.20;1.00
10536;DHT22;5316;49.538;8.352;2023-06-14T20:32:21;23.10;1.00
10536;DHT22;5316;49.538;8.352;2023-06-14T20:34:48;23.10;1.00
10536;DHT22;5316;49.538;8.352;2023-06-14T20:37:15;23.10;1.00
10536;DHT22;5316;49.538;8.352;2023-06-14T20:39:42;23.00;1.00
10536;DHT22;5316;49.538;8.352;2023-06-14T20:42:10;22.90;1.00
10536;DHT22;5316;49.538;8.352;2023-06-14T20:44:39;22.90;1.00
10536;DHT22;5316;49.538;8.352;2023-06-14T20:47:06;22.80;1.00
10536;DHT22;5316;49.538;8.352;2023-06-14T20:49:38;22.80;1.00
10536;DHT22;5316;49.538;8.352;2023-06-14T20:52:06;22.70;1.00
10536;DHT22;5316;49.538;8.352;2023-06-14T20:54:34;22.60;1.00
10536;DHT22;5316;49.538;8.352;2023-06-14T20:57:01;22.50;1.00
10536;DHT22;5316;49.538;8.352;2023-06-14T20:59:31;22.50;1.00
10536;DHT22;5316;49.538;8.352;2023-06-14T21:01:58;22.50;1.00
10536;DHT22;5316;49.538;8.352;2023-06-14T21:04:25;22.40;1.00
10536;DHT22;5316;49.538;8.352;2023-06-14T21:06:54;22.40;1.00
10536;DHT22;5316;49.538;8.352;2023-06-14T21:09:21;22.40;1.00
10536;DHT22;5316;49.538;8.352;2023-06-14T21:11:48;22.30;1.00
10536;DHT22;5316;49.538;8.352;2023-06-14T21:14:15;22.30;1.00
10536;DHT22;5316;49.538;8.352;2023-06-14T21:16:43;22.30;1.00
10536;DHT22;5316;49.538;8.352;2023-06-14T21:19:10;22.30;1.00
10536;DHT22;5316;49.538;8.352;2023-06-14T21:21:36;22.20;1.00
10536;DHT22;5316;49.538;8.352;2023-06-14T21:24:03;22.20;1.00
10536;DHT22;5316;49.538;8.352;2023-06-14T21:26:30;22.20;1.00
10536;DHT22;5316;49.538;8.352;2023-06-14T21:28:58;22.20;1.00
10536;DHT22;5316;49.538;8.352;2023-06-14T21:31:27;22.10;1.00
10536;DHT22;5316;49.538;8.352;2023-06-14T21:33:55;22.10;1.00
10536;DHT22;5316;49.538;8.352;2023-06-14T21:36:27;22.00;1.00
10536;DHT22;5316;49.538;8.352;2023-06-14T21:38:54;22.00;1.00
10536;DHT22;5316;49.538;8.352;2023-06-14T21:41:21;21.80;1.00
10536;DHT22;5316;49.538;8.352;2023-06-14T21:43:48;21.80;1.00
10536;DHT22;5316;49.538;8.352;2023-06-14T21:46:15;21.80;1.00
10536;DHT22;5316;49.538;8.352;2023-06-14T21:48:41;21.80;1.00
10536;DHT22;5316;49.538;8.352;2023-06-14T21:51:11;21.70;1.00
10536;DHT22;5316;49.538;8.352;2023-06-14T21:53:37;21.60;1.00
10536;DHT22;5316;49.538;8.352;2023-06-14T21:56:04;21.60;1.00
10536;DHT22;5316;49.538;8.352;2023-06-14T21:58:32;21.50;1.00
10536;DHT22;5316;49.538;8.352;2023-06-14T22:00:58;21.50;1.00
10536;DHT22;5316;49.538;8.352;2023-06-14T22:03:25;21.50;1.00
10536;DHT22;5316;49.538;8.352;2023-06-14T22:05:51;21.50;1.00
10536;DHT22;5316;49.538;8.352;2023-06-14T22:08:20;21.40;1.00
10536;DHT22;5316;49.538;8.352;2023-06-14T22:10:47;21.40;1.00
10536;DHT22;5316;49.538;8.352;2023-06-14T22:13:21;21.30;1.00